Time;durP1;ratioP1;P1;durP2;ratioP2;P2;SDS_P1;SDS_P2;PMS_P1;PMS_P2;Temp;Humidity;BMP_temperature;BMP_pressure;BME280_temperature;BME280_humidity;BME280_pressure;Samples;Min_cycle;Max_cycle;Signal;HPM_P1;HPM_P2
2021/08/17 00:01:58;;;;;;;5.37;4.27;;;13.30;99.90;;;;;;5051240;28;20464;-70
2021/08/17 00:04:25;;;;;;;4.43;4.00;;;13.20;99.90;;;;;;5050761;28;20463;-69
2021/08/17 00:06:52;;;;;;;4.97;3.87;;;13.20;99.90;;;;;;5050835;28;20935;-70
2021/08/17 00:09:19;;;;;;;7.60;4.10;;;13.20;99.90;;;;;;5050296;28;20827;-69
2021/08/17 00:11:46;;;;;;;7.13;4.10;;;13.20;99.90;;;;;;5049303;28;20475;-69
2021/08/17 00:14:14;;;;;;;5.87;4.50;;;13.10;99.90;;;;;;5050504;28;20505;-70
2021/08/17 00:16:40;;;;;;;5.23;3.80;;;13.10;99.90;;;;;;5050719;28;20933;-70
2021/08/17 00:19:07;;;;;;;4.67;4.17;;;13.10;99.90;;;;;;5050360;28;20459;-70
2021/08/17 00:21:34;;;;;;;4.90;3.60;;;13.10;99.90;;;;;;5050179;28;20451;-70
2021/08/17 00:24:00;;;;;;;7.03;4.30;;;13.10;99.90;;;;;;5050569;28;20818;-69
2021/08/17 00:26:27;;;;;;;7.60;4.17;;;13.00;99.90;;;;;;5049964;28;20502;-70
2021/08/17 00:28:54;;;;;;;5.73;4.40;;;12.90;99.90;;;;;;5050232;28;20817;-70
2021/08/17 00:31:22;;;;;;;5.27;4.10;;;12.90;99.90;;;;;;5049712;28;20479;-70
2021/08/17 00:33:48;;;;;;;5.50;4.73;;;12.90;99.90;;;;;;5050335;28;20463;-70
2021/08/17 00:36:15;;;;;;;5.73;4.80;;;12.90;99.90;;;;;;5049859;28;20490;-70
2021/08/17 00:38:42;;;;;;;7.17;4.50;;;12.90;99.90;;;;;;5049298;28;20459;-70
2021/08/17 00:41:10;;;;;;;7.43;5.00;;;12.90;99.90;;;;;;5049896;28;20493;-70
2021/08/17 00:43:38;;;;;;;6.53;4.57;;;12.90;99.90;;;;;;5049427;28;20472;-70
2021/08/17 00:46:06;;;;;;;5.50;4.47;;;12.90;99.90;;;;;;5049915;28;20486;-70
2021/08/17 00:48:36;;;;;;;4.90;4.40;;;12.90;99.90;;;;;;5048836;28;20471;-70
2021/08/17 00:51:03;;;;;;;6.23;4.43;;;12.80;99.90;;;;;;5049404;28;20471;-70
2021/08/17 00:53:30;;;;;;;8.07;4.63;;;12.80;99.90;;;;;;5047892;28;20459;-70
2021/08/17 00:55:58;;;;;;;4.90;4.27;;;12.80;99.90;;;;;;5049216;28;20913;-69
2021/08/17 00:58:24;;;;;;;8.07;4.40;;;12.80;99.90;;;;;;5049151;28;20455;-70
2021/08/17 01:00:51;;;;;;;5.33;3.80;;;12.80;99.90;;;;;;5048919;28;20463;-69
2021/08/17 01:03:18;;;;;;;5.83;3.70;;;12.80;99.90;;;;;;5049464;28;20460;-70
2021/08/17 01:05:46;;;;;;;5.07;3.93;;;12.80;99.90;;;;;;5049151;28;20479;-70
2021/08/17 01:08:13;;;;;;;5.57;4.07;;;12.70;99.90;;;;;;5048690;28;20462;-70
2021/08/17 01:10:41;;;;;;;5.60;4.40;;;12.70;99.90;;;;;;5049001;28;20463;-69
2021/08/17 01:13:07;;;;;;;6.70;4.63;;;12.70;99.90;;;;;;5049260;28;20570;-70
2021/08/17 01:15:34;;;;;;;5.13;3.80;;;12.60;99.90;;;;;;5049388;28;20470;-70
2021/08/17 01:18:01;;;;;;;5.40;4.33;;;12.60;99.90;;;;;;5048702;28;20467;-70
2021/08/17 01:20:28;;;;;;;6.07;3.95;;;12.50;99.90;;;;;;5048961;28;20491;-70
2021/08/17 01:22:56;;;;;;;4.30;3.40;;;12.50;99.90;;;;;;5053672;28;20200;-70
2021/08/17 01:25:24;;;;;;;6.00;3.73;;;12.50;99.90;;;;;;5068842;28;20819;-69
2021/08/17 01:27:52;;;;;;;4.90;4.00;;;12.40;99.90;;;;;;5068448;28;20450;-70
2021/08/17 01:30:19;;;;;;;6.73;5.00;;;12.40;99.90;;;;;;5069045;28;20463;-70
2021/08/17 01:32:47;;;;;;;5.60;4.10;;;12.40;99.90;;;;;;5068562;28;20498;-69
2021/08/17 01:35:15;;;;;;;6.63;4.32;;;12.30;99.90;;;;;;5069045;28;20671;-70
2021/08/17 01:37:41;;;;;;;5.53;3.90;;;12.30;99.90;;;;;;5068020;28;20438;-69
2021/08/17 01:40:10;;;;;;;5.70;3.75;;;12.20;99.90;;;;;;5068767;28;20204;-70
2021/08/17 01:42:41;;;;;;;6.87;4.90;;;12.20;99.90;;;;;;5068475;28;20200;-70
2021/08/17 01:45:11;;;;;;;7.63;5.20;;;12.20;99.90;;;;;;5068638;28;21033;-69
2021/08/17 01:47:38;;;;;;;7.90;4.17;;;12.10;99.90;;;;;;5067966;28;21028;-70
2021/08/17 01:50:05;;;;;;;6.37;4.03;;;12.00;99.90;;;;;;5068012;28;20462;-69
2021/08/17 01:52:32;;;;;;;5.77;4.10;;;12.00;99.90;;;;;;5068605;28;20991;-70
2021/08/17 01:54:59;;;;;;;4.50;4.10;;;12.00;99.90;;;;;;5068647;28;20462;-70
2021/08/17 01:57:26;;;;;;;7.50;4.10;;;11.90;99.90;;;;;;5068053;28;20224;-70
2021/08/17 01:59:52;;;;;;;4.70;4.27;;;11.90;99.90;;;;;;5068377;28;20470;-70
2021/08/17 02:02:20;;;;;;;5.07;4.57;;;11.90;99.90;;;;;;5068466;28;20489;-70
2021/08/17 02:04:47;;;;;;;5.03;4.40;;;11.90;99.90;;;;;;5068432;28;20466;-70
2021/08/17 02:07:14;;;;;;;5.70;4.57;;;11.90;99.90;;;;;;5067819;28;20478;-69
2021/08/17 02:09:40;;;;;;;5.22;4.15;;;11.80;99.90;;;;;;5067754;28;20619;-70
2021/08/17 02:12:08;;;;;;;6.53;4.35;;;11.80;99.90;;;;;;5068325;28;20224;-70
2021/08/17 02:14:34;;;;;;;5.83;4.73;;;11.80;99.90;;;;;;5068346;28;20200;-69
2021/08/17 02:17:01;;;;;;;4.40;4.00;;;11.80;99.90;;;;;;5068368;28;21047;-70
2021/08/17 02:19:29;;;;;;;6.33;4.97;;;11.70;99.90;;;;;;5066525;28;20469;-70
2021/08/17 02:21:56;;;;;;;5.65;5.05;;;11.80;99.90;;;;;;5028144;28;20825;-70
2021/08/17 02:24:23;;;;;;;5.15;3.95;;;11.70;99.90;;;;;;5028347;28;20214;-70
2021/08/17 02:26:49;;;;;;;5.47;4.13;;;11.70;99.90;;;;;;5027797;28;20249;-70
2021/08/17 02:29:16;;;;;;;4.00;3.60;;;11.70;99.90;;;;;;5027964;28;20460;-70
2021/08/17 02:31:42;;;;;;;7.90;4.17;;;11.70;99.90;;;;;;5028061;28;20229;-69
2021/08/17 02:34:09;;;;;;;6.55;4.35;;;11.70;99.90;;;;;;5028390;28;20472;-70
2021/08/17 02:36:37;;;;;;;6.53;3.95;;;11.70;99.90;;;;;;5030653;28;20233;-69
2021/08/17 02:39:04;;;;;;;7.68;4.00;;;11.80;99.90;;;;;;5031532;28;20251;-69
2021/08/17 02:41:31;;;;;;;5.72;4.22;;;11.70;99.90;;;;;;5032424;28;20209;-69
2021/08/17 02:43:58;;;;;;;6.53;4.05;;;11.70;99.90;;;;;;5032126;28;20700;-70
2021/08/17 02:46:24;;;;;;;8.65;4.25;;;11.70;99.90;;;;;;5032094;28;20221;-70
2021/08/17 02:48:51;;;;;;;5.00;4.00;;;11.60;99.90;;;;;;5031711;28;20209;-70
2021/08/17 02:51:18;;;;;;;5.20;3.88;;;11.60;99.90;;;;;;5042827;28;20219;-69
2021/08/17 02:53:46;;;;;;;5.60;4.00;;;11.60;99.90;;;;;;5051542;28;20232;-70
2021/08/17 02:56:12;;;;;;;5.63;4.10;;;11.50;99.90;;;;;;5051949;28;20275;-70
2021/08/17 02:58:39;;;;;;;4.88;4.18;;;11.50;99.90;;;;;;5051287;28;20204;-71
2021/08/17 03:01:06;;;;;;;6.28;3.85;;;11.50;99.90;;;;;;5052006;28;20672;-69
2021/08/17 03:03:32;;;;;;;4.00;3.40;;;11.40;99.90;;;;;;5051740;28;20569;-70
2021/08/17 03:05:59;;;;;;;5.85;3.90;;;11.40;99.90;;;;;;5051830;28;20592;-70
2021/08/17 03:08:26;;;;;;;5.30;4.10;;;11.40;99.90;;;;;;5051668;28;20201;-70
2021/08/17 03:10:54;;;;;;;4.32;3.78;;;11.40;99.90;;;;;;5051977;28;20201;-69
2021/08/17 03:13:20;;;;;;;5.57;4.13;;;11.40;99.90;;;;;;5052417;28;20228;-69
2021/08/17 03:15:47;;;;;;;4.60;3.95;;;11.40;99.90;;;;;;5051792;28;20574;-70
2021/08/17 03:18:14;;;;;;;5.47;3.95;;;11.30;99.90;;;;;;5052032;28;20213;-69
2021/08/17 03:20:40;;;;;;;6.90;4.25;;;11.30;99.90;;;;;;5051935;28;20565;-69
2021/08/17 03:23:09;;;;;;;6.82;4.53;;;11.20;99.90;;;;;;5052291;28;20205;-69
2021/08/17 03:25:35;;;;;;;5.20;4.03;;;11.20;99.90;;;;;;5052062;28;20201;-69
2021/08/17 03:28:04;;;;;;;5.03;4.53;;;11.20;99.90;;;;;;5051124;28;20205;-70
2021/08/17 03:30:31;;;;;;;6.40;4.47;;;11.20;99.90;;;;;;5051776;28;20200;-69
2021/08/17 03:32:57;;;;;;;6.22;4.10;;;11.20;99.90;;;;;;5050856;28;20723;-69
2021/08/17 03:35:24;;;;;;;7.38;3.88;;;11.20;99.90;;;;;;5051602;28;20615;-69
2021/08/17 03:37:51;;;;;;;6.13;4.18;;;11.20;99.90;;;;;;5050659;28;20233;-69
2021/08/17 03:40:21;;;;;;;5.55;3.95;;;11.10;99.90;;;;;;5051041;28;20201;-69
2021/08/17 03:42:48;;;;;;;7.53;4.13;;;11.10;99.90;;;;;;5051072;28;20208;-69
2021/08/17 03:45:19;;;;;;;6.63;4.60;;;11.10;99.90;;;;;;5051379;28;20242;-69
2021/08/17 03:47:46;;;;;;;5.82;4.15;;;11.10;99.90;;;;;;5050719;28;20600;-69
2021/08/17 03:50:15;;;;;;;7.80;4.28;;;11.10;99.90;;;;;;5050456;28;20573;-69
2021/08/17 03:52:43;;;;;;;6.00;4.32;;;11.10;99.90;;;;;;5050904;28;20593;-69
2021/08/17 03:55:12;;;;;;;4.80;4.10;;;11.10;99.90;;;;;;5048431;28;20208;-69
2021/08/17 03:57:39;;;;;;;6.90;3.80;;;11.10;99.90;;;;;;5050116;28;20225;-69
2021/08/17 04:00:08;;;;;;;6.65;4.07;;;11.10;99.90;;;;;;5049010;28;20201;-69
2021/08/17 04:02:36;;;;;;;4.82;3.97;;;11.00;99.90;;;;;;5049635;28;20288;-69
2021/08/17 04:05:03;;;;;;;6.25;4.22;;;11.00;99.90;;;;;;5048346;28;20208;-69
2021/08/17 04:07:30;;;;;;;4.70;3.85;;;10.90;99.90;;;;;;5049746;28;20228;-68
2021/08/17 04:09:57;;;;;;;6.63;4.20;;;10.90;99.90;;;;;;5049566;28;20208;-68
2021/08/17 04:12:24;;;;;;;8.05;3.42;;;10.90;99.90;;;;;;5053591;28;20889;-68
2021/08/17 04:14:51;;;;;;;6.50;3.90;;;10.90;99.90;;;;;;5070633;28;20196;-69
2021/08/17 04:17:18;;;;;;;5.65;4.45;;;10.90;99.90;;;;;;5070119;28;20224;-68
2021/08/17 04:19:46;;;;;;;5.70;3.90;;;10.90;99.90;;;;;;5070339;28;20631;-68
2021/08/17 04:22:12;;;;;;;5.43;3.80;;;10.90;99.90;;;;;;5070866;28;20227;-68
2021/08/17 04:24:39;;;;;;;5.15;3.63;;;10.80;99.90;;;;;;5070435;28;20317;-69
2021/08/17 04:27:06;;;;;;;7.13;4.55;;;10.80;99.90;;;;;;5069764;28;20227;-69
2021/08/17 04:29:33;;;;;;;7.70;4.40;;;10.80;99.90;;;;;;5070190;28;20206;-69
2021/08/17 04:31:59;;;;;;;8.00;4.03;;;10.80;99.90;;;;;;5070411;28;20211;-69
2021/08/17 04:34:26;;;;;;;6.22;4.43;;;10.80;99.90;;;;;;5070455;28;20196;-67
2021/08/17 04:36:54;;;;;;;5.20;3.78;;;10.80;99.90;;;;;;5069576;28;20235;-69
2021/08/17 04:39:21;;;;;;;5.15;3.80;;;10.80;99.90;;;;;;5069870;28;20208;-69
2021/08/17 04:41:47;;;;;;;6.25;4.22;;;10.80;99.90;;;;;;5069568;28;20207;-68
2021/08/17 04:44:14;;;;;;;4.80;4.20;;;10.80;99.90;;;;;;5070297;28;20200;-69
2021/08/17 04:46:41;;;;;;;6.93;4.30;;;10.80;99.90;;;;;;5069829;28;20231;-68
2021/08/17 04:49:08;;;;;;;6.43;4.40;;;10.80;99.90;;;;;;5069487;28;20612;-68
2021/08/17 04:51:35;;;;;;;5.68;4.40;;;10.70;99.90;;;;;;5230366;22;20232;-72
2021/08/17 04:54:03;;;;;;;5.20;3.60;;;10.70;99.90;;;;;;5069368;28;20216;-72
2021/08/17 04:56:30;;;;;;;4.95;4.03;;;10.70;99.90;;;;;;5070083;28;20243;-72
2021/08/17 04:58:57;;;;;;;6.57;4.40;;;10.70;99.90;;;;;;5068870;28;20200;-72
2021/08/17 05:01:24;;;;;;;5.82;4.40;;;10.70;99.90;;;;;;5069480;28;20212;-72
2021/08/17 05:03:50;;;;;;;6.90;3.97;;;10.70;99.90;;;;;;5068245;28;20200;-72
2021/08/17 05:06:17;;;;;;;5.97;4.00;;;10.70;99.90;;;;;;5066473;28;20225;-72
2021/08/17 05:08:44;;;;;;;6.82;4.97;;;10.70;99.90;;;;;;5066444;28;20879;-73
2021/08/17 05:11:12;;;;;;;6.72;4.13;;;10.70;99.90;;;;;;5050962;28;20201;-72
2021/08/17 05:13:39;;;;;;;6.40;4.30;;;10.80;99.90;;;;;;5048941;28;20279;-72
2021/08/17 05:16:05;;;;;;;5.72;3.97;;;10.80;99.90;;;;;;5049361;28;20221;-72
2021/08/17 05:18:33;;;;;;;6.50;4.18;;;10.80;99.90;;;;;;5048970;28;20205;-72
2021/08/17 05:21:00;;;;;;;4.57;4.10;;;10.80;99.90;;;;;;5049679;28;20634;-72
2021/08/17 05:23:27;;;;;;;6.18;4.60;;;10.80;99.90;;;;;;5069271;28;20197;-72
2021/08/17 05:25:54;;;;;;;6.93;5.40;;;10.90;99.90;;;;;;5069406;28;20220;-72
2021/08/17 05:28:22;;;;;;;4.75;4.10;;;10.90;99.90;;;;;;5068650;28;20201;-72
2021/08/17 05:30:49;;;;;;;5.57;4.20;;;11.00;99.90;;;;;;5069212;28;20203;-72
2021/08/17 05:33:16;;;;;;;5.50;4.70;;;11.00;99.90;;;;;;5068929;28;20228;-72
2021/08/17 05:35:43;;;;;;;5.93;4.03;;;11.00;99.90;;;;;;5069281;28;20228;-72
2021/08/17 05:38:10;;;;;;;4.68;4.03;;;11.00;99.90;;;;;;5052650;28;20205;-72
2021/08/17 05:40:37;;;;;;;7.22;4.18;;;11.10;99.90;;;;;;5049309;28;20209;-72
2021/08/17 05:43:04;;;;;;;9.15;4.63;;;11.10;99.90;;;;;;5048580;28;20680;-72
2021/08/17 05:45:33;;;;;;;5.75;3.97;;;11.10;99.90;;;;;;5049156;28;20232;-72
2021/08/17 05:48:00;;;;;;;6.68;4.90;;;11.10;99.90;;;;;;5048100;28;20460;-73
2021/08/17 05:50:27;;;;;;;5.50;3.92;;;11.10;99.90;;;;;;5049303;28;20209;-73
2021/08/17 05:52:54;;;;;;;5.00;4.03;;;11.20;99.90;;;;;;5049028;28;20221;-72
2021/08/17 05:55:21;;;;;;;5.97;4.35;;;11.20;99.90;;;;;;5048562;28;20227;-72
2021/08/17 05:57:58;;;;;;;5.72;3.83;;;11.30;99.90;;;;;;5048701;28;20760;-72
2021/08/17 06:00:25;;;;;;;8.85;4.22;;;11.30;99.90;;;;;;5048814;28;20247;-72
2021/08/17 06:02:53;;;;;;;7.60;4.53;;;11.30;99.90;;;;;;5048886;28;20197;-73
2021/08/17 06:05:20;;;;;;;7.00;4.60;;;11.40;99.90;;;;;;5048659;28;20208;-72
2021/08/17 06:07:48;;;;;;;5.35;4.40;;;11.50;99.90;;;;;;5048376;28;20212;-72
2021/08/17 06:10:15;;;;;;;4.85;4.10;;;11.60;99.90;;;;;;5048595;28;20201;-72
2021/08/17 06:12:42;;;;;;;7.65;4.80;;;11.60;99.90;;;;;;5048760;28;20215;-73
2021/08/17 06:15:10;;;;;;;8.57;4.75;;;11.70;99.90;;;;;;5048661;28;20708;-72
2021/08/17 06:17:37;;;;;;;5.38;4.28;;;11.80;99.90;;;;;;5048028;28;20260;-73
2021/08/17 06:20:07;;;;;;;6.82;4.63;;;11.80;99.90;;;;;;5048151;28;20688;-72
2021/08/17 06:22:35;;;;;;;6.65;4.32;;;11.90;99.90;;;;;;5048901;28;20614;-72
2021/08/17 06:25:02;;;;;;;8.73;4.40;;;11.90;99.90;;;;;;5048304;28;20201;-72
2021/08/17 06:27:29;;;;;;;5.50;4.38;;;12.00;99.90;;;;;;5047901;28;20637;-72
2021/08/17 06:29:55;;;;;;;5.30;4.30;;;12.00;99.90;;;;;;5048956;28;20205;-73
2021/08/17 06:32:22;;;;;;;5.82;4.00;;;12.00;99.90;;;;;;5047781;28;20209;-72
2021/08/17 06:34:49;;;;;;;6.17;4.70;;;12.10;99.90;;;;;;5048437;28;20636;-72
2021/08/17 06:37:17;;;;;;;6.18;4.82;;;12.10;99.90;;;;;;5047799;28;20490;-72
2021/08/17 06:39:44;;;;;;;5.60;3.60;;;12.20;99.90;;;;;;5048516;28;20205;-73
2021/08/17 06:42:11;;;;;;;7.95;5.15;;;12.30;99.90;;;;;;5047279;28;20569;-72
2021/08/17 06:44:38;;;;;;;6.03;5.03;;;12.30;99.90;;;;;;5047571;28;20193;-72
2021/08/17 06:47:05;;;;;;;8.60;5.00;;;12.30;99.90;;;;;;5047366;28;20220;-73
2021/08/17 06:49:33;;;;;;;5.70;4.40;;;12.40;99.90;;;;;;5047273;28;20447;-72
2021/08/17 06:51:59;;;;;;;6.15;4.90;;;12.40;99.90;;;;;;5047405;28;20475;-72
2021/08/17 06:54:27;;;;;;;6.43;4.77;;;12.40;99.90;;;;;;5047321;28;20722;-72
2021/08/17 06:56:54;;;;;;;7.53;4.80;;;12.50;99.90;;;;;;5047210;28;20475;-71
2021/08/17 06:59:21;;;;;;;7.27;4.70;;;12.60;99.90;;;;;;5047064;28;20909;-72
2021/08/17 07:01:48;;;;;;;7.43;5.80;;;12.70;99.90;;;;;;5047137;28;20459;-71
2021/08/17 07:04:14;;;;;;;5.97;4.70;;;12.70;99.90;;;;;;5046568;28;20550;-72
2021/08/17 07:06:41;;;;;;;7.73;4.53;;;12.80;99.90;;;;;;5047435;28;20475;-72
2021/08/17 07:09:08;;;;;;;7.10;4.83;;;12.90;99.90;;;;;;5046369;28;20463;-71
2021/08/17 07:11:36;;;;;;;8.10;5.10;;;13.00;99.90;;;;;;5045945;28;20459;-71
2021/08/17 07:14:03;;;;;;;6.33;5.10;;;13.00;99.90;;;;;;5044685;28;20533;-71
2021/08/17 07:16:30;;;;;;;5.60;4.90;;;13.10;99.90;;;;;;5047121;28;20536;-71
2021/08/17 07:18:57;;;;;;;6.83;4.90;;;13.10;99.90;;;;;;5046302;28;20493;-70
2021/08/17 07:21:25;;;;;;;7.03;5.50;;;13.20;99.90;;;;;;5047525;28;20463;-71
2021/08/17 07:23:52;;;;;;;8.60;5.47;;;13.20;99.90;;;;;;5050714;28;20943;-71
2021/08/17 07:26:19;;;;;;;8.83;5.37;;;13.30;99.90;;;;;;5050436;28;20506;-71
2021/08/17 07:28:47;;;;;;;7.57;5.77;;;13.50;99.90;;;;;;5050439;28;20458;-72
2021/08/17 07:31:14;;;;;;;6.87;4.90;;;13.50;99.90;;;;;;5050654;28;20459;-71
2021/08/17 07:33:41;;;;;;;10.10;6.37;;;13.60;99.90;;;;;;5050728;28;20562;-71
2021/08/17 07:36:08;;;;;;;7.80;5.53;;;13.60;99.90;;;;;;5050225;28;20486;-71
2021/08/17 07:38:35;;;;;;;7.00;5.10;;;13.70;99.90;;;;;;5050094;28;20455;-71
2021/08/17 07:41:02;;;;;;;9.80;6.30;;;13.80;99.90;;;;;;5047857;28;20467;-71
2021/08/17 07:43:29;;;;;;;9.83;6.50;;;13.90;99.90;;;;;;5049821;28;20456;-71
2021/08/17 07:45:58;;;;;;;6.93;5.20;;;13.90;99.90;;;;;;5050536;28;20505;-71
2021/08/17 07:48:25;;;;;;;8.07;5.50;;;14.00;99.90;;;;;;5047173;28;20962;-71
2021/08/17 07:50:52;;;;;;;8.07;5.70;;;14.10;99.90;;;;;;5050336;28;20462;-71
2021/08/17 07:53:19;;;;;;;6.87;5.03;;;14.10;99.90;;;;;;5049822;28;20881;-71
2021/08/17 07:55:46;;;;;;;6.27;5.40;;;14.10;99.90;;;;;;5050010;28;20475;-71
2021/08/17 07:58:12;;;;;;;7.37;5.10;;;14.10;99.90;;;;;;5049550;28;20462;-71
2021/08/17 08:00:39;;;;;;;7.17;5.40;;;14.20;99.90;;;;;;5049685;28;20459;-71
2021/08/17 08:03:07;;;;;;;8.03;5.23;;;14.30;99.90;;;;;;5049629;28;20974;-71
2021/08/17 08:05:34;;;;;;;6.63;5.20;;;14.50;99.90;;;;;;5049984;28;20459;-71
2021/08/17 08:08:01;;;;;;;7.07;5.80;;;14.50;99.90;;;;;;5049006;28;20815;-71
2021/08/17 08:10:28;;;;;;;6.83;5.10;;;14.60;99.90;;;;;;5049680;28;20458;-71
2021/08/17 08:12:55;;;;;;;5.90;5.20;;;14.80;99.90;;;;;;5049572;28;20554;-71
2021/08/17 08:15:22;;;;;;;7.33;5.53;;;14.80;99.90;;;;;;5049671;28;20487;-71
2021/08/17 08:17:49;;;;;;;6.60;5.20;;;14.90;99.90;;;;;;5049307;28;20538;-71
2021/08/17 08:20:17;;;;;;;6.60;4.67;;;14.90;99.90;;;;;;5048958;28;20463;-71
2021/08/17 08:22:44;;;;;;;6.73;5.17;;;15.00;99.90;;;;;;5049862;28;20460;-70
2021/08/17 08:25:11;;;;;;;6.43;5.40;;;15.00;99.90;;;;;;5049093;28;20491;-71
2021/08/17 08:27:39;;;;;;;5.63;5.03;;;15.10;99.90;;;;;;5048976;28;20691;-71
2021/08/17 08:30:07;;;;;;;6.63;4.80;;;15.10;99.90;;;;;;5049000;28;20475;-71
2021/08/17 08:32:34;;;;;;;5.83;4.63;;;15.20;99.90;;;;;;5048462;28;20470;-70
2021/08/17 08:35:01;;;;;;;6.23;4.60;;;15.30;99.90;;;;;;5048817;28;21001;-70
2021/08/17 08:37:30;;;;;;;9.43;5.80;;;15.30;99.90;;;;;;5048899;28;20475;-70
2021/08/17 08:39:57;;;;;;;6.87;5.63;;;15.50;99.90;;;;;;5050277;28;20890;-71
2021/08/17 08:42:25;;;;;;;7.00;5.10;;;15.60;99.90;;;;;;5050024;28;20459;-70
2021/08/17 08:44:53;;;;;;;5.80;4.87;;;15.50;99.90;;;;;;5050078;28;20455;-71
2021/08/17 08:47:21;;;;;;;7.17;5.10;;;15.60;99.90;;;;;;5049052;28;20494;-70
2021/08/17 08:49:50;;;;;;;6.67;5.00;;;15.60;99.90;;;;;;5049835;28;20845;-70
2021/08/17 08:52:17;;;;;;;6.40;5.10;;;15.60;99.90;;;;;;5049694;28;20530;-71
2021/08/17 08:54:45;;;;;;;5.90;4.70;;;15.60;99.90;;;;;;5049876;28;20483;-71
2021/08/17 08:57:12;;;;;;;6.17;5.17;;;15.60;99.90;;;;;;5049148;28;20487;-71
2021/08/17 08:59:39;;;;;;;7.73;4.83;;;15.60;99.90;;;;;;5049900;28;20471;-71
2021/08/17 09:02:08;;;;;;;7.20;5.10;;;15.70;99.90;;;;;;5049054;28;20455;-70
2021/08/17 09:04:35;;;;;;;9.73;5.50;;;15.70;99.90;;;;;;5049839;28;20954;-71
2021/08/17 09:07:03;;;;;;;7.03;4.90;;;15.70;99.90;;;;;;5047376;28;20479;-71
2021/08/17 09:09:30;;;;;;;9.47;5.60;;;15.80;99.90;;;;;;5028285;28;20464;-71
2021/08/17 09:12:00;;;;;;;6.70;5.10;;;15.90;99.90;;;;;;5028575;28;20995;-71
2021/08/17 09:14:28;;;;;;;6.50;5.27;;;16.10;99.90;;;;;;5028537;28;20491;-71
2021/08/17 09:16:56;;;;;;;7.27;5.93;;;16.20;99.90;;;;;;5028549;28;20491;-70
2021/08/17 09:19:33;;;;;;;6.50;5.10;;;16.40;99.90;;;;;;5027401;28;20467;-70
2021/08/17 09:22:03;;;;;;;5.80;5.20;;;16.40;99.90;;;;;;5026354;28;20466;-71
2021/08/17 09:24:33;;;;;;;7.87;5.83;;;16.50;99.90;;;;;;5028847;28;20522;-70
2021/08/17 09:27:03;;;;;;;6.03;5.37;;;16.60;99.90;;;;;;5028579;28;20480;-70
2021/08/17 09:29:33;;;;;;;6.47;5.10;;;16.60;99.90;;;;;;5032624;28;20946;-70
2021/08/17 09:32:03;;;;;;;5.83;5.07;;;16.70;99.90;;;;;;5047829;28;20451;-70
2021/08/17 09:34:34;;;;;;;6.10;4.37;;;16.70;99.90;;;;;;5047626;28;20503;-70
2021/08/17 09:37:04;;;;;;;6.60;4.67;;;16.80;99.90;;;;;;5045645;28;20483;-70
2021/08/17 09:39:33;;;;;;;7.00;5.17;;;17.00;99.90;;;;;;5046849;28;20552;-70
2021/08/17 09:42:20;;;;;;;6.60;5.30;;;17.20;99.90;;;;;;5046122;28;21002;-70
2021/08/17 09:45:02;;;;;;;6.63;5.23;;;17.30;99.90;;;;;;5047939;28;20459;-71
2021/08/17 09:47:30;;;;;;;5.90;4.90;;;17.30;99.90;;;;;;5047644;28;20902;-70
2021/08/17 09:50:16;;;;;;;6.10;4.30;;;17.20;99.90;;;;;;5044880;28;20451;-70
2021/08/17 09:52:42;;;;;;;4.70;4.03;;;17.20;99.90;;;;;;5047381;28;20520;-70
2021/08/17 09:55:14;;;;;;;5.70;5.00;;;17.10;99.90;;;;;;5046653;28;20483;-71
2021/08/17 09:57:42;;;;;;;7.40;4.47;;;17.20;99.90;;;;;;5046523;28;20486;-71
2021/08/17 10:00:14;;;;;;;7.03;4.23;;;17.30;99.90;;;;;;5046274;28;20467;-70
2021/08/17 10:02:43;;;;;;;4.53;4.00;;;17.40;99.90;;;;;;5045401;28;20463;-70
2021/08/17 10:05:12;;;;;;;5.80;4.80;;;17.50;99.90;;;;;;5047038;28;20506;-70
2021/08/17 10:07:40;;;;;;;4.77;4.27;;;17.50;99.90;;;;;;5047413;28;20511;-70
2021/08/17 10:10:08;;;;;;;4.50;4.10;;;17.50;99.90;;;;;;5046568;28;20495;-70
2021/08/17 10:12:36;;;;;;;6.33;4.20;;;17.40;99.90;;;;;;5048313;28;20883;-70
2021/08/17 10:15:06;;;;;;;4.90;3.80;;;17.10;99.90;;;;;;5047453;28;20479;-70
2021/08/17 10:17:33;;;;;;;8.10;4.00;;;16.90;99.90;;;;;;5047115;28;20483;-70
2021/08/17 10:20:00;;;;;;;5.10;4.13;;;16.80;99.90;;;;;;5047763;28;20463;-70
2021/08/17 10:22:27;;;;;;;4.83;4.13;;;16.60;99.90;;;;;;5039166;28;20466;-70
2021/08/17 10:25:05;;;;;;;4.17;3.70;;;16.50;99.90;;;;;;5042983;28;20452;-70
2021/08/17 10:27:34;;;;;;;4.87;3.43;;;16.40;99.90;;;;;;5044482;28;20518;-70
2021/08/17 10:30:10;;;;;;;3.70;3.10;;;16.30;99.90;;;;;;5046345;28;20456;-70
2021/08/17 10:32:50;;;;;;;4.00;3.13;;;16.20;99.90;;;;;;5045608;28;20455;-70
2021/08/17 10:35:56;;;;;;;4.60;3.70;;;16.30;99.90;;;;;;5044992;28;20483;-70
2021/08/17 10:38:48;;;;;;;4.70;3.57;;;16.40;99.90;;;;;;5042253;28;20459;-70
2021/08/17 10:41:16;;;;;;;4.60;3.40;;;16.50;99.90;;;;;;5044660;28;20489;-70
2021/08/17 10:44:20;;;;;;;4.60;4.00;;;16.60;99.90;;;;;;5046307;28;20471;-70
2021/08/17 10:46:58;;;;;;;6.10;4.07;;;16.60;99.90;;;;;;5047391;28;21029;-70
2021/08/17 10:50:00;;;;;;;5.00;4.43;;;16.70;99.90;;;;;;5045634;28;20816;-70
2021/08/17 10:52:30;;;;;;;6.00;4.07;;;16.90;99.90;;;;;;5040995;28;20478;-70
2021/08/17 10:55:28;;;;;;;4.57;3.70;;;17.10;99.90;;;;;;5046462;28;20487;-70
2021/08/17 10:57:58;;;;;;;6.43;3.90;;;17.40;99.90;;;;;;5027432;28;20882;-70
2021/08/17 11:00:52;;;;;;;4.47;3.70;;;17.70;99.90;;;;;;5049531;28;20455;-70
2021/08/17 11:03:45;;;;;;;3.67;3.20;;;18.00;99.90;;;;;;5046543;28;20959;-71
2021/08/17 11:06:32;;;;;;;4.67;3.83;;;18.20;99.90;;;;;;5048528;28;20471;-71
2021/08/17 11:09:01;;;;;;;6.20;3.47;;;18.40;99.90;;;;;;5049156;28;20513;-70
2021/08/17 11:11:28;;;;;;;5.50;3.63;;;18.50;99.90;;;;;;5053765;28;20454;-70
2021/08/17 11:14:17;;;;;;;6.43;3.50;;;18.60;99.90;;;;;;5069709;28;20834;-70
2021/08/17 11:16:47;;;;;;;4.27;3.60;;;18.70;99.90;;;;;;5065139;28;20553;-70
2021/08/17 11:19:15;;;;;;;4.13;3.10;;;18.80;99.90;;;;;;5068622;28;20469;-70
2021/08/17 11:21:44;;;;;;;4.77;3.63;;;18.70;99.90;;;;;;5069137;28;20470;-70
2021/08/17 11:24:31;;;;;;;6.30;3.10;;;18.60;99.90;;;;;;5068910;28;20466;-70
2021/08/17 11:27:00;;;;;;;4.67;3.40;;;18.50;99.90;;;;;;5069015;28;20536;-70
2021/08/17 11:29:33;;;;;;;4.97;3.43;;;18.50;99.90;;;;;;5057036;28;20938;-70
2021/08/17 11:32:01;;;;;;;9.67;4.00;;;18.60;99.90;;;;;;5048221;28;20546;-70
2021/08/17 11:34:30;;;;;;;6.00;3.70;;;18.80;99.90;;;;;;5048232;28;20454;-70
2021/08/17 11:37:03;;;;;;;4.67;3.60;;;18.90;99.90;;;;;;5048278;28;20503;-69
2021/08/17 11:39:34;;;;;;;5.17;3.80;;;19.10;99.90;;;;;;5047382;28;20455;-70
2021/08/17 11:42:02;;;;;;;6.20;4.30;;;19.30;99.90;;;;;;5047650;28;20459;-69
2021/08/17 11:44:29;;;;;;;4.23;3.70;;;19.40;99.90;;;;;;5048722;28;20799;-70
2021/08/17 11:47:08;;;;;;;4.10;3.70;;;19.50;99.90;;;;;;5049266;28;20487;-70
2021/08/17 11:49:36;;;;;;;3.87;3.47;;;19.70;99.90;;;;;;5048401;28;20459;-70
2021/08/17 11:52:09;;;;;;;4.80;4.00;;;19.70;99.90;;;;;;5049050;28;20532;-69
2021/08/17 11:54:45;;;;;;;4.87;3.40;;;19.90;99.90;;;;;;5055268;28;21240;-70
2021/08/17 11:57:12;;;;;;;5.60;4.40;;;19.90;99.90;;;;;;5048218;28;20490;-70
2021/08/17 11:59:41;;;;;;;4.80;3.90;;;20.00;99.90;;;;;;5049281;28;20558;-69
2021/08/17 12:02:08;;;;;;;5.20;3.90;;;20.10;99.90;;;;;;5047893;28;20467;-69
2021/08/17 12:04:35;;;;;;;4.60;4.13;;;20.30;99.90;;;;;;5048372;28;20487;-70
2021/08/17 12:07:09;;;;;;;4.53;4.03;;;20.40;99.90;;;;;;5048415;28;20490;-70
2021/08/17 12:09:38;;;;;;;4.50;4.03;;;20.50;99.90;;;;;;5049000;28;20458;-70
2021/08/17 12:12:08;;;;;;;4.83;4.20;;;20.60;99.90;;;;;;5048643;28;20787;-71
2021/08/17 12:14:36;;;;;;;5.50;4.27;;;20.70;99.90;;;;;;5049125;28;20810;-70
2021/08/17 12:17:04;;;;;;;5.40;3.80;;;20.80;99.90;;;;;;5048194;28;20483;-70
2021/08/17 12:19:32;;;;;;;6.60;3.83;;;21.00;99.90;;;;;;5048282;28;20455;-70
2021/08/17 12:21:59;;;;;;;4.90;4.27;;;21.00;99.90;;;;;;5048303;28;20470;-71
2021/08/17 12:24:28;;;;;;;5.20;4.50;;;21.10;99.90;;;;;;5048457;28;20810;-71
2021/08/17 12:26:56;;;;;;;5.57;4.10;;;21.10;99.90;;;;;;5048300;28;20490;-70
2021/08/17 12:29:25;;;;;;;4.87;3.90;;;21.00;99.90;;;;;;5047507;28;20601;-70
2021/08/17 12:31:53;;;;;;;4.40;3.70;;;21.00;99.90;;;;;;5046529;28;20478;-70
2021/08/17 12:34:20;;;;;;;5.13;4.20;;;21.00;99.90;;;;;;5044863;28;20551;-71
2021/08/17 12:36:49;;;;;;;4.87;4.20;;;21.00;99.90;;;;;;5054152;28;20857;-70
2021/08/17 12:39:20;;;;;;;6.20;4.50;;;21.10;99.90;;;;;;5045599;28;20551;-70
2021/08/17 12:41:49;;;;;;;5.20;4.20;;;21.20;99.90;;;;;;5046531;28;20507;-70
2021/08/17 12:44:21;;;;;;;5.13;4.40;;;21.30;99.90;;;;;;5046251;28;20542;-70
2021/08/17 12:47:00;;;;;;;4.90;4.33;;;21.30;99.90;;;;;;5046288;28;20555;-70
2021/08/17 12:49:40;;;;;;;6.13;3.90;;;21.30;99.90;;;;;;5046811;28;20474;-70
2021/08/17 12:52:34;;;;;;;6.00;4.97;;;21.10;99.90;;;;;;5046491;28;20951;-70
2021/08/17 12:55:05;;;;;;;4.53;4.10;;;21.00;99.90;;;;;;5046959;28;20888;-70
2021/08/17 12:57:35;;;;;;;4.87;4.33;;;21.10;99.90;;;;;;5062763;28;21224;-70